createdAt,value
2023-02-17T00:02:15.736Z,13.40
2023-02-17T00:04:48.499Z,13.50
2023-02-17T00:07:20.368Z,13.50
2023-02-17T00:09:53.158Z,13.40
2023-02-17T00:12:25.226Z,13.40
2023-02-17T00:14:57.591Z,13.30
2023-02-17T00:17:30.569Z,13.40
2023-02-17T00:20:02.469Z,13.30
2023-02-17T00:22:35.221Z,13.30
2023-02-17T00:25:07.888Z,13.40
2023-02-17T00:27:39.821Z,13.40
2023-02-17T00:30:13.058Z,13.40
2023-02-17T00:32:45.460Z,13.40
2023-02-17T00:35:18.327Z,13.40
2023-02-17T00:37:50.332Z,13.40
2023-02-17T00:40:22.695Z,13.40
2023-02-17T00:42:54.945Z,13.30
2023-02-17T00:45:27.725Z,13.40
2023-02-17T00:47:59.663Z,13.40
2023-02-17T00:50:32.418Z,13.30
2023-02-17T00:53:04.760Z,13.30
2023-02-17T00:58:11.437Z,13.20
2023-02-17T01:00:43.365Z,13.20
2023-02-17T01:03:16.218Z,13.20
2023-02-17T01:05:50.200Z,13.20
2023-02-17T01:08:23.784Z,13.20
2023-02-17T01:10:55.926Z,13.20
2023-02-17T01:13:29.871Z,13.20
2023-02-17T01:16:01.804Z,13.20
2023-02-17T01:18:34.631Z,13.20
2023-02-17T01:23:39.622Z,13.20
2023-02-17T01:26:19.583Z,13.10
2023-02-17T01:28:54.451Z,13.20
2023-02-17T01:31:28.740Z,13.20
2023-02-17T01:34:03.566Z,13.20
2023-02-17T01:39:10.496Z,13.20
2023-02-17T01:41:44.301Z,13.10
2023-02-17T01:44:23.459Z,13.10
2023-02-17T01:46:56.788Z,13.10
2023-02-17T01:49:37.042Z,13.10
2023-02-17T01:52:24.136Z,13.10
2023-02-17T01:55:05.408Z,13.20
2023-02-17T01:57:41.649Z,13.10
2023-02-17T02:00:15.279Z,13.10
2023-02-17T02:02:50.936Z,12.90
2023-02-17T02:05:25.001Z,13.00
2023-02-17T02:07:58.316Z,13.00
2023-02-17T02:10:30.227Z,13.10
2023-02-17T02:13:03.938Z,13.10
2023-02-17T02:15:59.242Z,13.00
2023-02-17T02:18:54.464Z,13.00
2023-02-17T02:21:50.125Z,13.00
2023-02-17T02:24:49.177Z,13.00
2023-02-17T02:27:33.382Z,13.00
2023-02-17T02:34:45.515Z,12.90
2023-02-17T02:37:26.607Z,12.90
2023-02-17T02:40:04.035Z,12.90
2023-02-17T02:42:39.672Z,12.80
2023-02-17T02:45:13.666Z,12.90
2023-02-17T02:47:53.886Z,12.80
2023-02-17T02:50:58.061Z,12.80
2023-02-17T02:54:05.031Z,12.90
2023-02-17T02:57:10.046Z,12.80
2023-02-17T03:00:12.182Z,12.90
2023-02-17T03:03:15.824Z,12.80
2023-02-17T03:05:59.803Z,12.80
2023-02-17T03:08:54.174Z,12.80
2023-02-17T03:11:33.647Z,12.80
2023-02-17T03:14:16.048Z,12.80
2023-02-17T03:16:50.933Z,12.80
2023-02-17T03:19:25.782Z,12.70
2023-02-17T03:22:09.444Z,12.70
2023-02-17T03:24:42.635Z,12.70
2023-02-17T03:27:15.957Z,12.80
2023-02-17T03:29:48.781Z,12.70
2023-02-17T03:32:22.287Z,12.80
2023-02-17T03:34:55.070Z,12.80
2023-02-17T03:40:00.272Z,12.80
2023-02-17T03:45:06.105Z,12.70
2023-02-17T03:47:38.447Z,12.70
2023-02-17T03:50:11.209Z,12.70
2023-02-17T03:52:44.836Z,12.80
2023-02-17T03:55:17.639Z,12.70
2023-02-17T03:57:50.418Z,12.70
2023-02-17T04:05:49.838Z,12.70
2023-02-17T04:08:22.807Z,12.70
2023-02-17T04:10:57.712Z,12.80
2023-02-17T04:13:30.956Z,12.80
2023-02-17T04:16:04.449Z,12.80
2023-02-17T04:18:38.648Z,12.80
2023-02-17T04:21:10.787Z,12.70
2023-02-17T04:23:43.534Z,12.70
2023-02-17T04:26:15.483Z,12.70
2023-02-17T04:31:21.108Z,12.70
2023-02-17T04:36:25.771Z,12.70
2023-02-17T04:38:58.483Z,12.60
2023-02-17T04:41:30.881Z,12.60
2023-02-17T04:44:02.758Z,12.60
2023-02-17T04:46:35.053Z,12.60
2023-02-17T04:49:07.008Z,12.50
2023-02-17T04:51:39.757Z,12.50
2023-02-17T04:54:12.833Z,12.50
2023-02-17T04:56:44.725Z,12.50
2023-02-17T04:59:17.462Z,12.50
2023-02-17T05:01:50.007Z,12.50
2023-02-17T05:04:21.969Z,12.40
2023-02-17T05:06:54.809Z,12.40
2023-02-17T05:09:27.528Z,12.40
2023-02-17T05:11:59.885Z,12.40
2023-02-17T05:14:34.541Z,12.40
2023-02-17T05:19:39.217Z,12.40
2023-02-17T05:22:33.933Z,12.40
2023-02-17T05:25:07.819Z,12.30
2023-02-17T05:27:40.290Z,12.30
2023-02-17T05:30:12.990Z,12.30
2023-02-17T05:32:45.729Z,12.30
2023-02-17T05:35:17.774Z,12.30
2023-02-17T05:40:23.242Z,12.10
2023-02-17T05:46:10.001Z,12.20
2023-02-17T05:48:43.117Z,12.20
2023-02-17T05:51:17.682Z,12.20
2023-02-17T05:58:57.833Z,12.20
2023-02-17T06:01:29.742Z,12.20
2023-02-17T06:04:02.458Z,12.10
2023-02-17T06:06:34.870Z,12.20
2023-02-17T06:09:06.858Z,12.10
2023-02-17T06:11:39.670Z,12.10
2023-02-17T06:14:12.051Z,12.10
2023-02-17T06:16:44.334Z,12.10
2023-02-17T06:19:16.665Z,12.10
2023-02-17T06:21:48.572Z,12.00
2023-02-17T06:24:20.837Z,12.00
2023-02-17T06:26:53.723Z,12.00
2023-02-17T06:29:27.793Z,12.00
2023-02-17T06:32:02.031Z,11.90
2023-02-17T06:34:33.949Z,11.90
2023-02-17T06:37:07.051Z,11.90
2023-02-17T06:42:12.026Z,11.80
2023-02-17T06:44:44.800Z,11.70
2023-02-17T06:47:16.790Z,11.80
2023-02-17T06:57:48.377Z,11.70
2023-02-17T07:02:55.624Z,11.80
2023-02-17T07:05:28.018Z,11.80
2023-02-17T07:08:01.057Z,11.80
2023-02-17T07:10:37.969Z,11.80
2023-02-17T07:15:43.514Z,11.80
2023-02-17T07:18:17.346Z,12.00
2023-02-17T07:20:49.988Z,11.90
2023-02-17T07:23:22.746Z,11.90
2023-02-17T07:25:56.992Z,11.90
2023-02-17T07:31:28.591Z,11.80
2023-02-17T07:34:03.063Z,11.80
2023-02-17T07:36:35.870Z,11.70
2023-02-17T07:39:08.121Z,11.70
2023-02-17T07:46:49.827Z,11.60
2023-02-17T07:51:54.619Z,11.60
2023-02-17T07:57:00.825Z,11.60
2023-02-17T08:02:08.874Z,11.50
2023-02-17T08:04:40.864Z,11.60
2023-02-17T08:07:14.362Z,11.60
2023-02-17T08:10:05.886Z,11.60
2023-02-17T08:12:57.383Z,11.60
2023-02-17T08:15:34.628Z,11.60
2023-02-17T08:18:06.610Z,11.60
2023-02-17T08:20:40.334Z,11.50
2023-02-17T08:23:13.094Z,11.50
2023-02-17T08:25:44.999Z,11.50
2023-02-17T08:31:34.806Z,11.70
2023-02-17T08:34:10.974Z,11.60
2023-02-17T08:39:18.969Z,11.50
2023-02-17T08:41:50.890Z,11.70
2023-02-17T08:44:27.683Z,11.70
2023-02-17T08:47:00.506Z,11.70
2023-02-17T08:49:33.700Z,11.60
2023-02-17T08:57:34.034Z,11.40
2023-02-17T09:00:24.714Z,11.30
2023-02-17T09:02:56.688Z,11.10
2023-02-17T09:08:23.357Z,11.10
2023-02-17T09:10:56.792Z,11.20
2023-02-17T09:16:25.885Z,11.10
2023-02-17T09:18:58.014Z,11.10
2023-02-17T09:24:25.780Z,11.20
2023-02-17T09:29:31.472Z,11.30
2023-02-17T09:32:10.384Z,11.30
2023-02-17T09:34:49.690Z,11.30
2023-02-17T09:37:24.021Z,11.30
2023-02-17T09:39:56.388Z,11.30
2023-02-17T09:42:43.095Z,11.30
2023-02-17T09:45:31.620Z,11.30
2023-02-17T09:48:12.449Z,11.30
2023-02-17T09:51:01.918Z,11.50
2023-02-17T09:54:00.886Z,11.50
2023-02-17T09:56:42.439Z,11.50
2023-02-17T09:59:19.212Z,11.50
2023-02-17T10:01:59.943Z,11.50
2023-02-17T10:05:00.611Z,11.50
2023-02-17T10:08:08.195Z,11.60
2023-02-17T10:10:54.084Z,11.50
2023-02-17T10:13:36.125Z,11.60
2023-02-17T10:16:18.284Z,11.70
2023-02-17T10:19:02.649Z,11.70
2023-02-17T10:21:44.739Z,11.90
2023-02-17T10:24:18.007Z,12.00
2023-02-17T10:27:44.519Z,11.90
2023-02-17T10:30:44.689Z,11.80
2023-02-17T10:37:06.720Z,12.10
2023-02-17T10:40:02.285Z,12.00
2023-02-17T10:42:39.773Z,12.00
2023-02-17T10:45:27.507Z,12.10
2023-02-17T10:48:17.298Z,12.00
2023-02-17T10:50:54.473Z,12.10
2023-02-17T10:53:37.801Z,12.10
2023-02-17T10:56:22.976Z,12.30
2023-02-17T10:59:11.833Z,12.30
2023-02-17T11:01:45.745Z,12.20
2023-02-17T11:04:21.192Z,12.40
2023-02-17T11:07:15.076Z,12.40
2023-02-17T11:09:52.870Z,12.40
2023-02-17T11:12:41.733Z,12.30
2023-02-17T11:15:24.248Z,12.40
2023-02-17T11:18:01.428Z,12.40
2023-02-17T11:20:36.452Z,12.40
2023-02-17T11:23:25.322Z,12.50
2023-02-17T11:26:16.838Z,12.50
2023-02-17T11:28:50.984Z,12.40
2023-02-17T11:31:29.687Z,12.50
2023-02-17T11:34:21.851Z,12.50
2023-02-17T11:37:12.283Z,12.40
2023-02-17T11:39:54.214Z,12.40
2023-02-17T11:42:33.969Z,12.60
2023-02-17T11:45:30.893Z,12.60
2023-02-17T11:48:43.433Z,12.60
2023-02-17T11:51:43.743Z,12.70
2023-02-17T11:54:51.104Z,15.20
2023-02-17T11:57:42.499Z,12.60
2023-02-17T12:00:39.903Z,12.60
2023-02-17T12:03:48.710Z,12.60
2023-02-17T12:06:55.900Z,12.70
2023-02-17T12:09:58.065Z,12.70
2023-02-17T12:12:55.011Z,12.90
2023-02-17T12:15:59.687Z,12.90
2023-02-17T12:19:08.728Z,12.80
2023-02-17T12:22:16.006Z,12.80
2023-02-17T12:25:31.089Z,12.90
2023-02-17T12:28:14.289Z,12.80
2023-02-17T12:31:15.972Z,12.90
2023-02-17T12:34:47.219Z,13.00
2023-02-17T12:37:25.436Z,13.00
2023-02-17T12:40:22.067Z,13.00
2023-02-17T12:43:01.361Z,12.90
2023-02-17T12:45:51.326Z,12.90
2023-02-17T12:49:07.417Z,12.90
2023-02-17T12:51:45.806Z,13.00
2023-02-17T12:54:30.316Z,13.10
2023-02-17T12:57:11.250Z,13.00
2023-02-17T12:59:47.011Z,13.20
2023-02-17T13:02:26.823Z,13.10
2023-02-17T13:05:02.167Z,13.20
2023-02-17T13:08:00.597Z,13.30
2023-02-17T13:10:37.096Z,13.20
2023-02-17T13:13:26.915Z,14.00
2023-02-17T13:16:14.275Z,13.30
2023-02-17T13:18:50.603Z,13.50
2023-02-17T13:24:35.524Z,13.50
2023-02-17T13:27:31.217Z,13.40
2023-02-17T13:30:39.428Z,13.40
2023-02-17T13:33:20.416Z,13.40
2023-02-17T13:38:31.372Z,13.30
2023-02-17T13:41:07.505Z,13.40
2023-02-17T13:43:43.001Z,13.40
2023-02-17T13:46:26.440Z,13.40
2023-02-17T13:49:05.224Z,13.40
2023-02-17T13:51:37.919Z,13.40
2023-02-17T13:54:12.319Z,13.50
2023-02-17T13:56:52.454Z,13.40
2023-02-17T13:59:27.154Z,13.50
2023-02-17T14:02:00.426Z,13.50
2023-02-17T14:04:32.656Z,13.50
2023-02-17T14:07:05.778Z,13.50
2023-02-17T14:09:38.166Z,13.40
2023-02-17T14:12:24.909Z,13.50
2023-02-17T14:14:56.943Z,13.50
2023-02-17T14:17:32.982Z,13.50
2023-02-17T14:25:27.348Z,13.60
2023-02-17T14:27:59.796Z,13.70
2023-02-17T14:30:39.381Z,13.70
2023-02-17T14:33:17.397Z,13.50
2023-02-17T14:35:57.219Z,13.70
2023-02-17T14:38:37.710Z,13.70
2023-02-17T14:43:42.641Z,13.60
2023-02-17T14:46:15.239Z,13.60
2023-02-17T14:48:51.338Z,13.70
2023-02-17T14:51:30.854Z,13.70
2023-02-17T14:54:13.850Z,13.70
2023-02-17T14:57:13.512Z,13.70
2023-02-17T14:59:46.094Z,13.70
2023-02-17T15:02:21.093Z,13.70
2023-02-17T15:04:53.470Z,13.70
2023-02-17T15:07:25.433Z,13.60
2023-02-17T15:09:57.776Z,13.60
2023-02-17T15:12:29.778Z,13.60
2023-02-17T15:17:34.408Z,13.70
2023-02-17T15:20:09.834Z,13.80
2023-02-17T15:22:42.629Z,13.90
2023-02-17T15:25:22.816Z,13.90
2023-02-17T15:30:28.603Z,13.90
2023-02-17T15:33:02.751Z,13.90
2023-02-17T15:35:35.094Z,13.90
2023-02-17T15:38:11.625Z,14.00
2023-02-17T15:40:44.037Z,13.90
2023-02-17T15:43:21.106Z,13.70
2023-02-17T15:48:31.949Z,13.70
2023-02-17T15:53:36.741Z,13.60
2023-02-17T15:56:27.605Z,13.60
2023-02-17T15:59:14.796Z,13.50
2023-02-17T16:01:47.359Z,13.60
2023-02-17T16:04:19.734Z,13.60
2023-02-17T16:09:24.312Z,13.50
2023-02-17T16:11:58.552Z,13.50
2023-02-17T16:14:36.868Z,13.30
2023-02-17T16:17:16.993Z,13.40
2023-02-17T16:24:54.018Z,13.30
2023-02-17T16:27:26.433Z,13.30
2023-02-17T16:32:33.235Z,13.20
2023-02-17T16:35:07.144Z,13.10
2023-02-17T16:40:17.860Z,13.10
2023-02-17T16:42:50.519Z,13.10
2023-02-17T16:45:25.980Z,13.00
2023-02-17T16:48:01.423Z,13.00
2023-02-17T16:50:35.331Z,13.00
2023-02-17T16:53:10.967Z,12.90
2023-02-17T16:55:43.206Z,12.90
2023-02-17T16:58:23.019Z,13.00
2023-02-17T17:00:56.313Z,13.00
2023-02-17T17:03:28.765Z,12.90
2023-02-17T17:06:02.219Z,12.90
2023-02-17T17:11:07.044Z,13.00
2023-02-17T17:13:39.369Z,13.00
2023-02-17T17:16:33.333Z,13.10
2023-02-17T17:19:05.828Z,13.10
2023-02-17T17:21:37.745Z,13.10
2023-02-17T17:26:46.188Z,13.10
2023-02-17T17:29:19.704Z,13.10
2023-02-17T17:31:51.784Z,13.10
2023-02-17T17:39:29.672Z,12.90
2023-02-17T17:42:01.621Z,12.90
2023-02-17T17:44:34.014Z,12.80
2023-02-17T17:47:06.110Z,12.80
2023-02-17T17:49:38.444Z,12.80
2023-02-17T17:52:10.382Z,12.80
2023-02-17T17:54:43.534Z,12.80
2023-02-17T17:57:15.458Z,12.80
2023-02-17T17:59:47.940Z,12.70
2023-02-17T18:02:19.849Z,12.70
2023-02-17T18:04:52.528Z,12.70
2023-02-17T18:07:26.109Z,12.60
2023-02-17T18:09:59.000Z,12.70
2023-02-17T18:12:33.548Z,12.70
2023-02-17T18:15:07.815Z,12.70
2023-02-17T18:17:42.176Z,12.60
2023-02-17T18:20:15.196Z,12.60
2023-02-17T18:22:48.580Z,12.60
2023-02-17T18:30:27.663Z,12.50
2023-02-17T18:35:38.726Z,12.40
2023-02-17T18:38:12.175Z,12.40
2023-02-17T18:40:44.762Z,12.50
2023-02-17T18:43:16.831Z,12.50
2023-02-17T18:45:50.272Z,12.50
2023-02-17T18:48:22.862Z,12.50
2023-02-17T18:50:55.233Z,12.50
2023-02-17T18:53:27.827Z,12.40
2023-02-17T18:56:00.773Z,12.40
2023-02-17T18:58:57.894Z,12.40
2023-02-17T19:01:34.703Z,12.40
2023-02-17T19:04:12.206Z,12.40
2023-02-17T19:06:44.570Z,12.40
2023-02-17T19:09:16.985Z,12.40
2023-02-17T19:11:48.843Z,12.40
2023-02-17T19:14:22.173Z,12.40
2023-02-17T19:16:54.062Z,12.30
2023-02-17T19:19:29.642Z,12.30
2023-02-17T19:24:38.381Z,12.30
2023-02-17T19:27:12.396Z,12.30
2023-02-17T19:29:44.334Z,12.30
2023-02-17T19:32:17.152Z,12.30
2023-02-17T19:34:50.313Z,12.30
2023-02-17T19:37:23.364Z,12.30
2023-02-17T19:39:56.004Z,12.30
2023-02-17T19:42:28.560Z,12.30
2023-02-17T19:45:00.885Z,12.40
2023-02-17T19:47:33.245Z,12.30
2023-02-17T19:50:08.325Z,12.30
2023-02-17T19:52:41.055Z,12.30
2023-02-17T19:55:14.205Z,12.30
2023-02-17T20:00:22.029Z,12.40
2023-02-17T20:05:27.804Z,12.50
2023-02-17T20:08:01.050Z,12.50
2023-02-17T20:10:33.973Z,12.60
2023-02-17T20:13:06.644Z,12.60
2023-02-17T20:15:39.061Z,12.60
2023-02-17T20:18:12.214Z,12.60
2023-02-17T20:20:53.789Z,12.60
2023-02-17T20:23:27.685Z,12.60
2023-02-17T20:26:05.862Z,12.60
2023-02-17T20:28:38.495Z,12.50
2023-02-17T20:31:11.493Z,12.50
2023-02-17T20:33:45.091Z,12.50
2023-02-17T20:36:17.563Z,12.50
2023-02-17T20:38:51.270Z,12.40
2023-02-17T20:41:24.508Z,12.40
2023-02-17T20:43:59.130Z,12.40
2023-02-17T20:46:31.314Z,12.40
2023-02-17T20:49:04.074Z,12.40
2023-02-17T20:54:10.043Z,12.40
2023-02-17T20:56:46.189Z,12.40
2023-02-17T20:59:18.614Z,12.40
2023-02-17T21:01:50.747Z,12.50
2023-02-17T21:04:23.521Z,12.50
2023-02-17T21:06:55.474Z,12.50
2023-02-17T21:09:27.826Z,12.50
2023-02-17T21:12:00.155Z,12.50
2023-02-17T21:14:32.210Z,12.50
2023-02-17T21:19:38.274Z,12.50
2023-02-17T21:22:10.486Z,12.50
2023-02-17T21:24:43.244Z,12.50
2023-02-17T21:27:15.111Z,12.50
2023-02-17T21:29:47.832Z,12.50
2023-02-17T21:32:20.918Z,12.50
2023-02-17T21:34:53.291Z,12.50
2023-02-17T21:37:25.642Z,12.40
2023-02-17T21:42:50.102Z,12.50
2023-02-17T21:45:22.750Z,12.40
2023-02-17T21:47:56.107Z,12.40
2023-02-17T21:53:01.250Z,12.50
2023-02-17T21:55:33.223Z,12.40
2023-02-17T21:58:05.826Z,12.40
2023-02-17T22:08:17.131Z,12.40
2023-02-17T22:10:50.078Z,12.40
2023-02-17T22:13:23.714Z,12.30
2023-02-17T22:15:58.712Z,12.30
2023-02-17T22:18:31.919Z,12.30
2023-02-17T22:21:10.291Z,12.30
2023-02-17T22:23:43.201Z,12.30
2023-02-17T22:26:20.287Z,12.30
2023-02-17T22:28:54.738Z,12.30
2023-02-17T22:31:29.541Z,12.20
2023-02-17T22:34:06.936Z,12.30
2023-02-17T22:36:38.902Z,12.30
2023-02-17T22:42:04.892Z,12.30
2023-02-17T22:44:55.580Z,12.30
2023-02-17T22:47:28.288Z,12.30
2023-02-17T22:50:00.199Z,12.30
2023-02-17T22:52:32.965Z,12.30
2023-02-17T22:55:05.186Z,12.30
2023-02-17T22:57:38.418Z,12.30
2023-02-17T23:00:11.261Z,12.40
2023-02-17T23:03:05.960Z,12.40
2023-02-17T23:05:37.897Z,12.40
2023-02-17T23:08:14.074Z,12.40
2023-02-17T23:10:46.846Z,12.40
2023-02-17T23:13:19.679Z,12.40
2023-02-17T23:15:51.875Z,12.40
2023-02-17T23:18:24.338Z,12.40
2023-02-17T23:20:56.234Z,12.50
2023-02-17T23:23:28.962Z,12.40
2023-02-17T23:26:01.306Z,12.30
2023-02-17T23:28:34.817Z,12.40
2023-02-17T23:31:10.772Z,12.40
2023-02-17T23:33:43.546Z,12.40
2023-02-17T23:36:15.442Z,12.40
2023-02-17T23:38:48.155Z,12.50
2023-02-17T23:41:20.045Z,12.40
2023-02-17T23:43:52.805Z,12.40
2023-02-17T23:46:24.755Z,12.40
2023-02-17T23:48:57.528Z,12.40
2023-02-17T23:51:29.472Z,12.40
2023-02-17T23:54:02.355Z,12.40
2023-02-17T23:56:36.395Z,12.40
